Sm Yantian — 3EHD2 — position and weather

sailwx.info

Track history (hours):
 
Tides and Currents Weather Stations Pressure Air Temp Water Temp Dewpoint Dewpoint Depression Visibility Wind Speed Wind Dir Waves Ship Positions

Sm Yantian

Last reported at 2018-Aug-14 13:02 UTC. Time now 2018-Aug-20 16:48 UTC.
Position N 34°59' E 128°49'.

Length 304 m; draft 10.8 m.

Type: Ship (hazmat cat A). MMSI: 372025000.

Date/timePositionNaut miles runAvg speedWind from/ knotsBaromVisibWave heightAir tempDewpointWater temp
2018-Aug-14 13:02N 34°59' E 128°49'1 8.5
2018-Aug-14 12:56N 34°58' E 128°49'12 7.6
2018-Aug-14 11:23N 34°53' E 129°02'9 1.2
2018-Aug-14 03:37N 35°01' E 129°08'112.6
2018-Aug-14 03:30N 35°02' E 129°08'4 8.0
2018-Aug-14 03:00N 35°06' E 129°06'0 0.4
2018-Aug-14 02:30N 35°06' E 129°06'0 0.0
2018-Aug-14 02:00N 35°06' E 129°06'0 0.0
2018-Aug-14 01:30N 35°06' E 129°06'0 0.0
2018-Aug-14 01:00N 35°06' E 129°06'0 0.0
2018-Aug-14 00:30N 35°06' E 129°06'0 0.0
2018-Aug-14 00:00N 35°06' E 129°06'0 0.0
2018-Aug-13 23:27N 35°06' E 129°06'0 0.1
2018-Aug-13 23:00N 35°06' E 129°06'0 0.5
2018-Aug-13 22:30N 35°05' E 129°06'3 5.7
2018-Aug-13 22:00N 35°04' E 129°09'4 7.3
2018-Aug-13 21:30N 35°03' E 129°13'5 9.7
2018-Aug-13 20:59N 35°02' E 129°19'710.8
2018-Aug-13 20:20N 35°00' E 129°27'  
Track history (hours):
 
Tides and Currents Weather Stations Pressure Air Temp Water Temp Dewpoint Dewpoint Depression Visibility Wind Speed Wind Dir Waves Ship Positions

Sm Yantian

Last reported at 2018-Aug-14 13:02 UTC. Time now 2018-Aug-20 16:48 UTC.
Position N 34°59' E 128°49'.

Length 304 m; draft 10.8 m.

Type: Ship (hazmat cat A). MMSI: 372025000.

Date/timePositionNaut miles runAvg speedWind from/ knotsBaromVisibWave heightAir tempDewpointWater temp
2018-Aug-14 13:02N 34°59' E 128°49'1 8.5
2018-Aug-14 12:56N 34°58' E 128°49'12 7.6
2018-Aug-14 11:23N 34°53' E 129°02'9 1.2
2018-Aug-14 03:37N 35°01' E 129°08'112.6
2018-Aug-14 03:30N 35°02' E 129°08'4 8.0
2018-Aug-14 03:00N 35°06' E 129°06'0 0.4
2018-Aug-14 02:30N 35°06' E 129°06'0 0.0
2018-Aug-14 02:00N 35°06' E 129°06'0 0.0
2018-Aug-14 01:30N 35°06' E 129°06'0 0.0
2018-Aug-14 01:00N 35°06' E 129°06'0 0.0
2018-Aug-14 00:30N 35°06' E 129°06'0 0.0
2018-Aug-14 00:00N 35°06' E 129°06'0 0.0
2018-Aug-13 23:27N 35°06' E 129°06'0 0.1
2018-Aug-13 23:00N 35°06' E 129°06'0 0.5
2018-Aug-13 22:30N 35°05' E 129°06'3 5.7
2018-Aug-13 22:00N 35°04' E 129°09'4 7.3
2018-Aug-13 21:30N 35°03' E 129°13'5 9.7
2018-Aug-13 20:59N 35°02' E 129°19'710.8
2018-Aug-13 20:20N 35°00' E 129°27'  

Dump ship's entire track history